createdAt,value
2022-08-01T00:00:01.936Z,20.64
2022-08-01T00:01:02.277Z,20.64
2022-08-01T00:02:02.026Z,20.66
2022-08-01T00:03:01.877Z,20.62
2022-08-01T00:04:01.899Z,20.58
2022-08-01T00:05:01.895Z,20.55
2022-08-01T00:06:01.875Z,20.50
2022-08-01T00:07:02.300Z,20.48
2022-08-01T00:08:01.847Z,20.48
2022-08-01T00:09:01.805Z,20.48
2022-08-01T00:10:01.813Z,20.48
2022-08-01T00:11:03.039Z,20.48
2022-08-01T00:12:02.216Z,20.42
2022-08-01T00:13:01.772Z,20.42
2022-08-01T00:14:01.752Z,20.36
2022-08-01T00:15:01.742Z,20.33
2022-08-01T00:16:01.704Z,20.31
2022-08-01T00:17:07.018Z,20.32
2022-08-01T00:18:02.682Z,20.35
2022-08-01T00:19:01.695Z,20.36
2022-08-01T00:20:01.662Z,20.36
2022-08-01T00:21:01.664Z,20.36
2022-08-01T00:22:01.629Z,20.32
2022-08-01T00:23:02.036Z,20.35
2022-08-01T00:24:01.646Z,20.33
2022-08-01T00:25:01.603Z,20.35
2022-08-01T00:26:01.612Z,20.36
2022-08-01T00:27:01.984Z,20.35
2022-08-01T00:28:01.545Z,20.33
2022-08-01T00:29:01.583Z,20.31
2022-08-01T00:30:13.702Z,20.31
2022-08-01T00:31:02.511Z,20.28
2022-08-01T00:32:01.981Z,20.26
2022-08-01T00:33:01.501Z,20.24
2022-08-01T00:34:01.483Z,20.20
2022-08-01T00:35:01.493Z,20.23
2022-08-01T00:36:01.458Z,20.26
2022-08-01T00:37:01.772Z,20.31
2022-08-01T00:38:01.423Z,20.32
2022-08-01T00:39:01.416Z,20.33
2022-08-01T00:40:01.403Z,20.33
2022-08-01T00:41:01.811Z,20.32
2022-08-01T00:42:01.384Z,20.28
2022-08-01T00:43:01.378Z,20.24
2022-08-01T00:44:01.380Z,20.21
2022-08-01T00:45:01.342Z,20.18
2022-08-01T00:46:01.331Z,20.14
2022-08-01T00:47:01.719Z,20.14
2022-08-01T00:48:01.311Z,20.14
2022-08-01T00:49:01.370Z,20.11
2022-08-01T00:50:01.332Z,20.13
2022-08-01T00:51:01.283Z,20.11
2022-08-01T00:52:01.706Z,20.08
2022-08-01T00:53:01.251Z,20.03
2022-08-01T00:54:01.238Z,20.01
2022-08-01T00:55:01.191Z,19.96
2022-08-01T00:56:01.594Z,19.94
2022-08-01T00:57:01.263Z,19.91
2022-08-01T00:58:04.611Z,19.88
2022-08-01T00:59:01.157Z,19.84
2022-08-01T01:00:01.280Z,19.80
2022-08-01T01:01:01.525Z,19.77
2022-08-01T01:02:01.133Z,19.76
2022-08-01T01:03:01.105Z,19.74
2022-08-01T01:04:01.090Z,19.73
2022-08-01T01:05:01.101Z,19.69
2022-08-01T01:06:01.433Z,19.69
2022-08-01T01:07:01.051Z,19.69
2022-08-01T01:08:01.058Z,19.68
2022-08-01T01:09:01.048Z,19.68
2022-08-01T01:10:01.029Z,19.66
2022-08-01T01:11:01.418Z,19.65
2022-08-01T01:12:00.981Z,19.62
2022-08-01T01:13:01.061Z,19.62
2022-08-01T01:14:00.942Z,19.59
2022-08-01T01:15:00.962Z,19.59
2022-08-01T01:16:01.369Z,19.56
2022-08-01T01:17:00.919Z,19.58
2022-08-01T01:18:00.891Z,19.58
2022-08-01T01:19:00.980Z,19.55
2022-08-01T01:20:00.907Z,19.50
2022-08-01T01:21:01.313Z,19.47
2022-08-01T01:22:00.877Z,19.44
2022-08-01T01:23:00.889Z,19.40
2022-08-01T01:24:00.839Z,19.39
2022-08-01T01:25:01.387Z,19.36
2022-08-01T01:26:01.125Z,19.32
2022-08-01T01:27:00.788Z,19.31
2022-08-01T01:28:00.767Z,19.31
2022-08-01T01:29:00.787Z,19.32
2022-08-01T01:30:01.379Z,19.31
2022-08-01T01:31:00.728Z,19.29
2022-08-01T01:32:00.740Z,19.28
2022-08-01T01:33:00.736Z,19.25
2022-08-01T01:34:00.736Z,19.23
2022-08-01T01:35:01.050Z,19.21
2022-08-01T01:36:00.719Z,19.19
2022-08-01T01:37:00.685Z,19.19
2022-08-01T01:38:00.647Z,19.18
2022-08-01T01:39:00.652Z,19.16
2022-08-01T01:40:00.995Z,19.18
2022-08-01T01:41:00.683Z,19.14
2022-08-01T01:42:00.677Z,19.11
2022-08-01T01:43:00.589Z,19.10
2022-08-01T01:44:00.577Z,19.08
2022-08-01T01:45:00.945Z,19.07
2022-08-01T01:46:00.558Z,19.02
2022-08-01T01:47:00.538Z,19.00
2022-08-01T01:48:00.505Z,18.95
2022-08-01T01:49:00.576Z,18.95
2022-08-01T01:50:00.815Z,18.94
2022-08-01T01:51:00.498Z,18.92
2022-08-01T01:52:02.746Z,18.91
2022-08-01T01:54:17.125Z,18.95
2022-08-01T01:55:16.841Z,18.94
2022-08-01T01:56:16.634Z,18.94
2022-08-01T01:57:16.550Z,18.94
2022-08-01T01:58:16.699Z,18.91
2022-08-01T01:59:16.947Z,18.90
2022-08-01T02:00:17.516Z,18.87
2022-08-01T02:01:16.540Z,18.85
2022-08-01T02:02:17.720Z,18.87
2022-08-01T02:03:16.493Z,18.84
2022-08-01T02:04:16.886Z,18.84
2022-08-01T02:05:16.455Z,18.84
2022-08-01T02:06:16.463Z,18.84
2022-08-01T02:07:16.579Z,18.84
2022-08-01T02:08:16.573Z,18.85
2022-08-01T02:09:16.775Z,18.87
2022-08-01T02:10:16.373Z,18.85
2022-08-01T02:11:16.375Z,18.84
2022-08-01T02:12:16.429Z,18.82
2022-08-01T02:13:16.375Z,18.82
2022-08-01T02:14:16.676Z,18.80
2022-08-01T02:15:16.348Z,18.81
2022-08-01T02:16:16.304Z,18.80
2022-08-01T02:17:16.286Z,18.81
2022-08-01T02:18:16.287Z,18.81
2022-08-01T02:19:16.585Z,18.82
2022-08-01T02:20:16.244Z,18.85
2022-08-01T02:21:16.254Z,18.85
2022-08-01T02:22:16.224Z,18.85
2022-08-01T02:23:16.625Z,18.84
2022-08-01T02:24:16.183Z,18.82
2022-08-01T02:25:16.197Z,18.82
2022-08-01T02:26:16.185Z,18.82
2022-08-01T02:27:16.153Z,18.80
2022-08-01T02:28:16.550Z,18.81
2022-08-01T02:29:16.132Z,18.80
2022-08-01T02:30:16.122Z,18.78
2022-08-01T02:31:16.114Z,18.78
2022-08-01T02:32:16.092Z,18.78
2022-08-01T02:33:16.482Z,18.75
2022-08-01T02:34:16.093Z,18.72
2022-08-01T02:35:16.113Z,18.70
2022-08-01T02:36:30.276Z,18.72
2022-08-01T02:37:17.041Z,18.69
2022-08-01T02:38:16.469Z,18.63
2022-08-01T02:39:16.000Z,18.63
2022-08-01T02:40:16.002Z,18.62
2022-08-01T02:41:15.988Z,18.63
2022-08-01T02:42:15.951Z,18.65
2022-08-01T02:43:16.321Z,18.62
2022-08-01T02:44:15.932Z,18.60
2022-08-01T02:45:15.939Z,18.57
2022-08-01T02:46:15.972Z,18.52
2022-08-01T02:47:15.894Z,18.52
2022-08-01T02:48:16.256Z,18.50
2022-08-01T02:49:15.902Z,18.48
2022-08-01T02:50:15.910Z,18.45
2022-08-01T02:51:15.868Z,18.44
2022-08-01T02:52:16.251Z,18.42
2022-08-01T02:53:15.850Z,18.44
2022-08-01T02:54:15.810Z,18.41
2022-08-01T02:55:15.792Z,18.41
2022-08-01T02:56:15.813Z,18.39
2022-08-01T02:57:16.156Z,18.37
2022-08-01T02:58:15.751Z,18.37
2022-08-01T02:59:15.762Z,18.35
2022-08-01T03:00:15.779Z,18.32
2022-08-01T03:01:15.744Z,18.27
2022-08-01T03:02:16.119Z,18.27
2022-08-01T03:03:15.689Z,18.26
2022-08-01T03:04:15.709Z,18.26
2022-08-01T03:05:15.659Z,18.23
2022-08-01T03:06:15.643Z,18.23
2022-08-01T03:07:16.066Z,18.21
2022-08-01T03:08:15.618Z,18.21
2022-08-01T03:09:16.640Z,18.17
2022-08-01T03:10:15.620Z,18.15
2022-08-01T03:11:15.595Z,18.12
2022-08-01T03:12:15.931Z,18.11
2022-08-01T03:13:15.550Z,18.08
2022-08-01T03:14:15.558Z,18.07
2022-08-01T03:15:15.528Z,18.03
2022-08-01T03:16:15.522Z,18.02
2022-08-01T03:17:15.940Z,18.00
2022-08-01T03:18:15.490Z,17.99
2022-08-01T03:19:15.467Z,18.00
2022-08-01T03:20:15.460Z,17.96
2022-08-01T03:21:15.804Z,17.95
2022-08-01T03:22:15.477Z,17.93
2022-08-01T03:23:15.417Z,17.93
2022-08-01T03:24:15.435Z,17.96
2022-08-01T03:25:15.406Z,17.93
2022-08-01T03:26:15.836Z,17.90
2022-08-01T03:27:15.387Z,17.89
2022-08-01T03:28:15.356Z,17.86
2022-08-01T03:29:15.365Z,17.84
2022-08-01T03:30:15.334Z,17.82
2022-08-01T03:31:15.732Z,17.81
2022-08-01T03:32:15.355Z,17.77
2022-08-01T03:33:15.283Z,17.75
2022-08-01T03:34:15.285Z,17.75
2022-08-01T03:35:15.298Z,17.72
2022-08-01T03:36:15.645Z,17.71
2022-08-01T03:37:15.265Z,17.70
2022-08-01T03:38:16.621Z,17.68
2022-08-01T03:39:15.206Z,17.64
2022-08-01T03:40:15.199Z,17.63
2022-08-01T03:41:15.691Z,17.58
2022-08-01T03:42:15.180Z,17.56
2022-08-01T03:43:15.187Z,17.52
2022-08-01T03:44:15.145Z,17.51
2022-08-01T03:45:15.154Z,17.48
2022-08-01T03:46:15.533Z,17.46
2022-08-01T03:47:15.095Z,17.43
2022-08-01T03:48:15.123Z,17.43
2022-08-01T03:49:15.149Z,17.40
2022-08-01T03:50:15.063Z,17.41
2022-08-01T03:51:15.427Z,17.38
2022-08-01T03:52:15.072Z,17.37
2022-08-01T03:53:15.009Z,17.36
2022-08-01T03:54:15.025Z,17.38
2022-08-01T03:55:15.022Z,17.37
2022-08-01T03:56:15.321Z,17.38
2022-08-01T03:57:34.982Z,17.40
2022-08-01T03:58:15.982Z,17.41
2022-08-01T03:59:14.945Z,17.43
2022-08-01T04:00:15.908Z,17.46
2022-08-01T04:01:15.582Z,17.46
2022-08-01T04:02:14.919Z,17.49
2022-08-01T04:03:14.892Z,17.51
2022-08-01T04:04:14.900Z,17.52
2022-08-01T04:05:15.302Z,17.54
2022-08-01T04:06:14.940Z,17.54
2022-08-01T04:07:14.849Z,17.56
2022-08-01T04:08:14.918Z,17.54
2022-08-01T04:09:14.860Z,17.56
2022-08-01T04:10:15.111Z,17.56
2022-08-01T04:11:14.839Z,17.56
2022-08-01T04:12:14.769Z,17.59
2022-08-01T04:13:14.857Z,17.62
2022-08-01T04:14:14.759Z,17.62
2022-08-01T04:15:15.157Z,17.63
2022-08-01T04:16:14.760Z,17.66
2022-08-01T04:17:14.734Z,17.68
2022-08-01T04:18:14.719Z,17.70
2022-08-01T04:19:14.710Z,17.70
2022-08-01T04:20:15.119Z,17.71
2022-08-01T04:21:14.659Z,17.74
2022-08-01T04:22:14.667Z,17.75
2022-08-01T04:23:14.660Z,17.78
2022-08-01T04:24:14.619Z,17.79
2022-08-01T04:25:15.040Z,17.84
2022-08-01T04:26:14.607Z,17.89
2022-08-01T04:27:14.569Z,17.92
2022-08-01T04:28:14.577Z,17.93
2022-08-01T04:29:14.550Z,17.96
2022-08-01T04:30:17.884Z,18.00
2022-08-01T04:31:14.534Z,18.03
2022-08-01T04:32:14.520Z,18.10
2022-08-01T04:33:14.516Z,18.12
2022-08-01T04:34:14.824Z,18.15
2022-08-01T04:35:34.881Z,18.20
2022-08-01T04:36:15.505Z,18.23
2022-08-01T04:37:14.432Z,18.25
2022-08-01T04:38:14.437Z,18.26
2022-08-01T04:39:14.888Z,18.26
2022-08-01T04:40:14.435Z,18.26
2022-08-01T04:41:14.409Z,18.26
2022-08-01T04:42:14.415Z,18.27
2022-08-01T04:43:15.133Z,18.27
2022-08-01T04:44:14.394Z,18.29
2022-08-01T04:45:14.652Z,18.29
2022-08-01T04:46:14.333Z,18.27
2022-08-01T04:47:14.313Z,18.30
2022-08-01T04:48:14.297Z,18.29
2022-08-01T04:49:14.293Z,18.29
2022-08-01T04:50:14.802Z,18.30
2022-08-01T04:51:14.255Z,18.29
2022-08-01T04:52:18.791Z,18.30
2022-08-01T04:53:15.258Z,18.30
2022-08-01T04:54:14.235Z,18.32
2022-08-01T04:55:14.245Z,18.32
2022-08-01T04:56:14.593Z,18.35
2022-08-01T04:57:14.214Z,18.36
2022-08-01T04:58:17.694Z,18.36
2022-08-01T04:59:20.091Z,18.35
2022-08-01T05:00:15.162Z,18.36
2022-08-01T05:01:14.537Z,18.33
2022-08-01T05:02:14.124Z,18.35
2022-08-01T05:03:14.103Z,18.37
2022-08-01T05:04:14.134Z,18.39
2022-08-01T05:05:14.111Z,18.42
2022-08-01T05:06:14.094Z,18.45
2022-08-01T05:08:31.743Z,18.50
2022-08-01T05:09:38.301Z,18.50
2022-08-01T05:10:38.354Z,18.51
2022-08-01T05:11:38.417Z,18.51
2022-08-01T05:12:38.296Z,18.51
2022-08-01T05:14:47.888Z,18.52
2022-08-01T05:15:54.896Z,18.54
2022-08-01T05:16:59.085Z,18.54
2022-08-01T05:17:47.733Z,18.52
2022-08-01T05:18:55.300Z,18.52
2022-08-01T05:21:36.827Z,18.54
2022-08-01T05:22:45.202Z,18.52
2022-08-01T05:23:44.099Z,18.54
2022-08-01T05:25:56.795Z,18.60
2022-08-01T05:29:24.640Z,18.60
2022-08-01T05:30:24.082Z,18.63
2022-08-01T05:31:31.182Z,18.66
2022-08-01T05:32:24.529Z,18.76
2022-08-01T05:34:40.278Z,19.00
2022-08-01T05:35:49.008Z,19.10
2022-08-01T05:36:48.580Z,19.22
2022-08-01T05:37:40.582Z,19.33
2022-08-01T05:38:48.258Z,19.43
2022-08-01T05:39:47.227Z,19.51
2022-08-01T05:40:47.204Z,19.62
2022-08-01T05:42:56.709Z,19.87
2022-08-01T05:43:56.163Z,19.96
2022-08-01T05:44:56.197Z,20.05
2022-08-01T05:45:56.213Z,20.13
2022-08-01T05:46:56.179Z,20.17
2022-08-01T05:47:56.232Z,20.18
2022-08-01T05:48:56.492Z,20.21
2022-08-01T05:49:56.142Z,20.21
2022-08-01T05:50:58.652Z,20.21
2022-08-01T05:51:56.512Z,20.21
2022-08-01T05:52:56.044Z,20.20
2022-08-01T05:53:56.041Z,20.24
2022-08-01T05:54:56.020Z,20.20
2022-08-01T05:55:56.012Z,20.20
2022-08-01T05:56:56.431Z,20.28
2022-08-01T05:57:55.995Z,20.33
2022-08-01T05:58:55.979Z,20.38
2022-08-01T05:59:55.973Z,20.38
2022-08-01T06:00:55.941Z,20.42
2022-08-01T06:01:56.438Z,20.39
2022-08-01T06:02:55.945Z,20.42
2022-08-01T06:03:55.901Z,20.43
2022-08-01T06:04:55.889Z,20.42
2022-08-01T06:05:55.871Z,20.43
2022-08-01T06:06:55.938Z,20.50
2022-08-01T06:07:56.248Z,20.61
2022-08-01T06:08:55.841Z,20.94
2022-08-01T06:09:55.827Z,21.69
2022-08-01T06:10:55.819Z,22.67
2022-08-01T06:11:55.907Z,23.23
2022-08-01T06:12:55.860Z,23.78
2022-08-01T06:13:56.757Z,24.24
2022-08-01T06:14:55.800Z,24.34
2022-08-01T06:15:55.780Z,24.20
2022-08-01T06:16:56.112Z,24.10
2022-08-01T06:17:55.718Z,24.10
2022-08-01T06:18:56.903Z,24.73
2022-08-01T06:19:55.719Z,25.43
2022-08-01T06:20:55.709Z,25.88
2022-08-01T06:21:55.678Z,26.45
2022-08-01T06:22:55.671Z,26.85
2022-08-01T06:23:55.667Z,27.21
2022-08-01T06:24:55.650Z,27.47
2022-08-01T06:25:55.951Z,27.81
2022-08-01T06:26:55.657Z,28.02
2022-08-01T06:27:55.611Z,28.19
2022-08-01T06:28:55.618Z,28.40
2022-08-01T06:29:55.571Z,28.66
2022-08-01T06:30:55.946Z,28.85
2022-08-01T06:31:55.559Z,29.09
2022-08-01T06:32:55.529Z,29.28
2022-08-01T06:33:55.526Z,29.37
2022-08-01T06:34:55.766Z,29.42
2022-08-01T06:35:55.839Z,29.67
2022-08-01T06:36:55.467Z,29.58
2022-08-01T06:37:55.469Z,29.68
2022-08-01T06:38:55.472Z,29.78
2022-08-01T06:39:55.508Z,29.92
2022-08-01T06:40:55.867Z,30.16
2022-08-01T06:41:55.419Z,30.15
2022-08-01T06:42:55.419Z,30.11
2022-08-01T06:43:55.395Z,30.34
2022-08-01T06:44:55.758Z,30.35
2022-08-01T06:45:55.370Z,30.45
2022-08-01T06:46:55.392Z,30.55
2022-08-01T06:47:55.341Z,30.34
2022-08-01T06:48:55.353Z,30.51
2022-08-01T06:49:55.361Z,30.64
2022-08-01T06:50:55.776Z,30.80
2022-08-01T06:51:55.289Z,31.01
2022-08-01T06:52:55.300Z,31.13
2022-08-01T06:53:55.270Z,31.26
2022-08-01T06:54:55.288Z,31.54
2022-08-01T06:55:55.268Z,31.56
2022-08-01T06:56:55.679Z,31.50
2022-08-01T06:57:55.221Z,31.34
2022-08-01T06:58:55.231Z,31.54
2022-08-01T06:59:55.217Z,31.93
2022-08-01T07:00:57.705Z,31.81
2022-08-01T07:01:55.601Z,31.76
2022-08-01T07:02:55.161Z,31.65
2022-08-01T07:03:55.194Z,31.78
2022-08-01T07:04:55.148Z,31.65
2022-08-01T07:05:55.120Z,31.01
2022-08-01T07:06:55.138Z,30.84
2022-08-01T07:07:55.531Z,30.67
2022-08-01T07:08:55.112Z,30.65
2022-08-01T07:09:55.077Z,30.69
2022-08-01T07:10:55.100Z,30.94
2022-08-01T07:11:55.093Z,31.01
2022-08-01T07:12:55.496Z,31.10
2022-08-01T07:13:55.030Z,31.10
2022-08-01T07:14:55.038Z,31.21
2022-08-01T07:15:55.029Z,31.14
2022-08-01T07:16:55.020Z,30.86
2022-08-01T07:17:55.367Z,30.98
2022-08-01T07:18:54.976Z,31.16
2022-08-01T07:19:54.976Z,31.19
2022-08-01T07:20:54.974Z,31.21
2022-08-01T07:21:54.940Z,31.20
2022-08-01T07:22:56.424Z,30.99
2022-08-01T07:23:55.792Z,31.04
2022-08-01T07:24:54.950Z,31.26
2022-08-01T07:25:58.083Z,31.39
2022-08-01T07:26:55.987Z,31.34
2022-08-01T07:27:54.881Z,31.43
2022-08-01T07:28:54.860Z,31.28
2022-08-01T07:29:54.839Z,31.16
2022-08-01T07:30:54.824Z,31.23
2022-08-01T07:31:54.829Z,31.39
2022-08-01T07:32:55.245Z,31.36
2022-08-01T07:33:54.813Z,31.51
2022-08-01T07:34:54.810Z,31.78
2022-08-01T07:35:54.819Z,32.15
2022-08-01T07:36:54.789Z,32.15
2022-08-01T07:37:55.131Z,32.15
2022-08-01T07:38:54.727Z,32.55
2022-08-01T07:39:54.749Z,32.44
2022-08-01T07:40:54.702Z,32.28
2022-08-01T07:42:06.716Z,32.45
2022-08-01T07:42:56.038Z,32.29
2022-08-01T07:43:57.910Z,31.91
2022-08-01T07:44:55.691Z,31.54
2022-08-01T07:45:54.650Z,31.57
2022-08-01T07:46:54.630Z,31.66
2022-08-01T07:47:54.629Z,31.81
2022-08-01T07:48:55.077Z,31.81
2022-08-01T07:49:54.611Z,31.96
2022-08-01T07:50:54.615Z,32.08
2022-08-01T07:52:03.642Z,32.40
2022-08-01T07:52:55.562Z,32.44
2022-08-01T07:53:55.011Z,32.33
2022-08-01T07:54:54.549Z,32.44
2022-08-01T07:55:54.583Z,32.74
2022-08-01T07:56:54.511Z,32.72
2022-08-01T07:57:54.561Z,32.74
2022-08-01T07:58:54.491Z,32.45
2022-08-01T07:59:54.816Z,32.21
2022-08-01T08:00:54.469Z,31.46
2022-08-01T08:01:54.581Z,31.68
2022-08-01T08:02:54.442Z,32.03
2022-08-01T08:03:54.472Z,32.25
2022-08-01T08:04:54.471Z,32.40
2022-08-01T08:05:57.895Z,32.33
2022-08-01T08:06:54.498Z,31.93
2022-08-01T08:07:54.419Z,31.47
2022-08-01T08:08:54.392Z,31.85
2022-08-01T08:09:54.381Z,32.21
2022-08-01T08:10:54.362Z,32.50
2022-08-01T08:11:54.792Z,32.66
2022-08-01T08:12:54.371Z,32.44
2022-08-01T08:13:54.321Z,32.33
2022-08-01T08:14:54.311Z,31.95
2022-08-01T08:15:54.332Z,31.61
2022-08-01T08:16:54.311Z,31.58
2022-08-01T08:17:55.035Z,31.57
2022-08-01T08:18:54.265Z,32.18
2022-08-01T08:19:54.321Z,32.65
2022-08-01T08:20:54.252Z,33.00
2022-08-01T08:21:54.232Z,33.59
2022-08-01T08:22:54.543Z,33.81
2022-08-01T08:23:54.222Z,33.82
2022-08-01T08:24:54.202Z,34.05
2022-08-01T08:25:55.218Z,34.30
2022-08-01T08:26:54.573Z,34.65
2022-08-01T08:27:54.162Z,34.89
2022-08-01T08:28:54.153Z,34.72
2022-08-01T08:29:54.204Z,34.81
2022-08-01T08:30:54.135Z,35.10
2022-08-01T08:31:54.491Z,35.06
2022-08-01T08:32:54.140Z,34.77
2022-08-01T08:33:54.121Z,34.37
2022-08-01T08:34:54.102Z,34.43
2022-08-01T08:35:54.498Z,33.04
2022-08-01T08:36:54.563Z,32.21
2022-08-01T08:37:55.919Z,31.81
2022-08-01T08:38:54.039Z,31.12
2022-08-01T08:39:54.041Z,31.99
2022-08-01T08:40:54.034Z,32.38
2022-08-01T08:41:54.034Z,32.41
2022-08-01T08:42:54.310Z,32.11
2022-08-01T08:43:54.002Z,31.58
2022-08-01T08:44:53.982Z,31.84
2022-08-01T08:46:00.291Z,31.93
2022-08-01T08:46:54.952Z,31.54
2022-08-01T08:47:53.960Z,31.09
2022-08-01T08:48:54.340Z,30.60
2022-08-01T08:49:53.942Z,30.27
2022-08-01T08:50:53.921Z,30.46
2022-08-01T08:51:53.893Z,30.24
2022-08-01T08:52:53.907Z,29.85
2022-08-01T08:53:54.221Z,29.63
2022-08-01T08:54:53.882Z,29.85
2022-08-01T08:55:55.770Z,29.70
2022-08-01T08:56:53.865Z,29.78
2022-08-01T08:57:53.822Z,29.78
2022-08-01T08:58:53.824Z,29.80
2022-08-01T08:59:54.185Z,29.86
2022-08-01T09:00:53.793Z,29.79
2022-08-01T09:01:53.831Z,29.90
2022-08-01T09:02:53.819Z,30.15
2022-08-01T09:03:53.743Z,30.27
2022-08-01T09:04:53.747Z,30.54
2022-08-01T09:05:54.173Z,30.62
2022-08-01T09:06:53.734Z,30.70
2022-08-01T09:07:53.745Z,30.82
2022-08-01T09:08:53.693Z,30.88
2022-08-01T09:09:53.681Z,30.57
2022-08-01T09:10:54.096Z,30.29
2022-08-01T09:11:57.403Z,30.04
2022-08-01T09:12:53.644Z,30.07
2022-08-01T09:13:53.632Z,29.90
2022-08-01T09:14:53.653Z,29.53
2022-08-01T09:15:53.641Z,29.24
2022-08-01T09:16:53.885Z,29.09
2022-08-01T09:17:53.640Z,28.86
2022-08-01T09:18:54.033Z,28.76
2022-08-01T09:19:54.666Z,28.71
2022-08-01T09:20:53.871Z,28.74
2022-08-01T09:21:53.551Z,29.04
2022-08-01T09:22:53.554Z,29.08
2022-08-01T09:23:54.799Z,29.43
2022-08-01T09:24:53.486Z,29.58
2022-08-01T09:25:53.503Z,29.55
2022-08-01T09:26:53.774Z,29.31
2022-08-01T09:27:53.515Z,29.33
2022-08-01T09:28:53.483Z,29.28
2022-08-01T09:30:01.884Z,29.33
2022-08-01T09:30:54.417Z,29.39
2022-08-01T09:31:53.743Z,29.42
2022-08-01T09:32:53.405Z,29.24
2022-08-01T09:33:53.385Z,29.27
2022-08-01T09:34:53.415Z,29.23
2022-08-01T09:35:53.364Z,29.19
2022-08-01T09:37:05.675Z,29.43
2022-08-01T09:37:54.763Z,29.71
2022-08-01T09:38:53.331Z,29.87
2022-08-01T09:39:53.315Z,29.94
2022-08-01T09:40:53.313Z,30.20
2022-08-01T09:41:53.341Z,30.31
2022-08-01T09:42:53.844Z,30.08
2022-08-01T09:43:53.294Z,29.58
2022-08-01T09:44:54.589Z,29.46
2022-08-01T09:45:53.735Z,29.49
2022-08-01T09:46:53.214Z,29.52
2022-08-01T09:47:53.233Z,29.49
2022-08-01T09:48:53.655Z,29.45
2022-08-01T09:49:53.226Z,29.51
2022-08-01T09:50:53.205Z,29.63
2022-08-01T09:51:58.984Z,29.67
2022-08-01T09:52:54.156Z,29.82
2022-08-01T09:53:53.514Z,30.22
2022-08-01T09:54:53.148Z,30.26
2022-08-01T09:55:53.145Z,30.27
2022-08-01T09:56:53.105Z,30.24
2022-08-01T09:57:53.078Z,30.22
2022-08-01T09:58:58.745Z,30.26
2022-08-01T09:59:59.109Z,30.24
2022-08-01T10:00:54.065Z,30.20
2022-08-01T10:01:53.025Z,30.13
2022-08-01T10:02:53.033Z,29.98
2022-08-01T10:03:53.106Z,29.95
2022-08-01T10:04:55.796Z,29.73
2022-08-01T10:05:54.450Z,29.58
2022-08-01T10:06:52.976Z,29.08
2022-08-01T10:07:53.008Z,28.68
2022-08-01T10:08:52.955Z,28.27
2022-08-01T10:09:52.925Z,27.90
2022-08-01T10:10:54.803Z,27.62
2022-08-01T10:11:54.235Z,27.60
2022-08-01T10:12:52.905Z,27.67
2022-08-01T10:13:52.914Z,27.82
2022-08-01T10:14:52.888Z,27.93
2022-08-01T10:15:52.882Z,27.99
2022-08-01T10:17:05.126Z,28.00
2022-08-01T10:17:54.581Z,28.03
2022-08-01T10:18:52.814Z,27.94
2022-08-01T10:19:52.839Z,27.81
2022-08-01T10:20:52.805Z,27.82
2022-08-01T10:21:58.104Z,27.99
2022-08-01T10:22:53.798Z,28.06
2022-08-01T10:23:53.123Z,28.15
2022-08-01T10:24:52.742Z,28.22
2022-08-01T10:25:52.804Z,28.41
2022-08-01T10:26:52.707Z,28.62
2022-08-01T10:27:52.695Z,28.88
2022-08-01T10:28:53.068Z,29.00
2022-08-01T10:30:05.816Z,29.19
2022-08-01T10:30:53.663Z,29.48
2022-08-01T10:31:52.766Z,29.60
2022-08-01T10:32:52.655Z,29.43
2022-08-01T10:33:53.424Z,29.31
2022-08-01T10:34:52.617Z,29.23
2022-08-01T10:35:52.613Z,29.30
2022-08-01T10:36:59.767Z,29.49
2022-08-01T10:38:00.094Z,29.73
2022-08-01T10:38:59.658Z,29.79
2022-08-01T10:40:27.600Z,29.61
2022-08-01T10:41:00.113Z,29.80
2022-08-01T10:41:59.560Z,29.89
2022-08-01T10:43:01.130Z,30.01
2022-08-01T10:43:59.658Z,29.90
2022-08-01T10:44:59.651Z,29.43
2022-08-01T10:45:59.534Z,29.23
2022-08-01T10:46:59.540Z,29.04
2022-08-01T10:48:00.583Z,28.73
2022-08-01T10:48:59.891Z,28.66
2022-08-01T10:50:00.469Z,28.62
2022-08-01T10:50:59.492Z,28.59
2022-08-01T10:51:59.455Z,28.41
2022-08-01T10:53:00.422Z,28.31
2022-08-01T10:54:00.764Z,28.34
2022-08-01T10:55:00.813Z,28.43
2022-08-01T10:55:59.544Z,28.46
2022-08-01T10:56:59.418Z,28.41
2022-08-01T10:58:00.421Z,28.31
2022-08-01T10:58:52.305Z,28.04
2022-08-01T11:00:01.261Z,27.82
2022-08-01T11:00:53.749Z,27.70
2022-08-01T11:01:52.340Z,27.47
2022-08-01T11:02:52.258Z,27.24
2022-08-01T11:03:58.337Z,27.10
2022-08-01T11:04:53.252Z,27.03
2022-08-01T11:05:52.258Z,27.02
2022-08-01T11:06:52.220Z,26.87
2022-08-01T11:07:52.206Z,27.07
2022-08-01T11:08:52.197Z,27.39
2022-08-01T11:09:52.457Z,27.59
2022-08-01T11:10:52.716Z,27.46
2022-08-01T11:11:52.157Z,27.70
2022-08-01T11:12:52.153Z,28.06
2022-08-01T11:13:52.195Z,28.29
2022-08-01T11:14:55.943Z,28.62
2022-08-01T11:15:53.018Z,29.00
2022-08-01T11:16:52.596Z,29.28
2022-08-01T11:17:54.565Z,29.43
2022-08-01T11:18:52.080Z,29.82
2022-08-01T11:19:52.059Z,30.02
2022-08-01T11:20:52.439Z,29.98
2022-08-01T11:21:58.160Z,29.98
2022-08-01T11:22:53.037Z,30.01
2022-08-01T11:23:52.179Z,30.08
2022-08-01T11:24:52.250Z,30.38
2022-08-01T11:26:05.601Z,30.76
2022-08-01T11:26:53.425Z,30.99
2022-08-01T11:27:52.007Z,31.20
2022-08-01T11:29:11.220Z,30.92
2022-08-01T11:29:52.927Z,30.94
2022-08-01T11:30:51.939Z,30.70
2022-08-01T11:31:52.266Z,30.27
2022-08-01T11:33:11.359Z,30.34
2022-08-01T11:33:52.883Z,30.49
2022-08-01T11:34:51.917Z,30.11
2022-08-01T11:35:51.887Z,29.97
2022-08-01T11:36:59.267Z,29.86
2022-08-01T11:37:52.872Z,29.82
2022-08-01T11:38:51.849Z,29.90
2022-08-01T11:39:51.837Z,29.92
2022-08-01T11:40:51.788Z,29.70
2022-08-01T11:41:52.226Z,29.14
2022-08-01T11:42:51.785Z,28.83
2022-08-01T11:43:51.775Z,28.77
2022-08-01T11:44:51.751Z,28.70
2022-08-01T11:45:51.735Z,28.46
2022-08-01T11:46:54.468Z,28.37
2022-08-01T11:47:51.707Z,28.17
2022-08-01T11:48:51.787Z,27.99
2022-08-01T11:49:51.727Z,27.82
2022-08-01T11:50:51.988Z,27.77
2022-08-01T11:51:51.711Z,27.75
2022-08-01T11:52:51.686Z,27.74
2022-08-01T11:53:51.629Z,27.81
2022-08-01T11:54:51.720Z,27.79
2022-08-01T11:55:52.477Z,27.78
2022-08-01T11:56:51.598Z,27.57
2022-08-01T11:57:51.608Z,27.55
2022-08-01T11:58:51.577Z,27.54
2022-08-01T12:00:03.202Z,27.54
2022-08-01T12:00:52.868Z,27.50
2022-08-01T12:01:51.589Z,27.57
2022-08-01T12:02:51.585Z,27.49
2022-08-01T12:03:51.519Z,27.44
2022-08-01T12:04:51.498Z,27.34
2022-08-01T12:05:51.911Z,27.34
2022-08-01T12:06:51.480Z,27.37
2022-08-01T12:07:51.476Z,27.40
2022-08-01T12:08:51.452Z,27.44
2022-08-01T12:09:51.457Z,27.44
2022-08-01T12:10:51.856Z,27.44
2022-08-01T12:11:52.434Z,27.40
2022-08-01T12:12:51.380Z,27.44
2022-08-01T12:13:51.398Z,27.54
2022-08-01T12:14:51.397Z,27.46
2022-08-01T12:15:56.461Z,27.36
2022-08-01T12:16:52.345Z,27.29
2022-08-01T12:17:58.271Z,27.25
2022-08-01T12:18:52.356Z,27.25
2022-08-01T12:19:51.291Z,27.32
2022-08-01T12:20:57.146Z,27.44
2022-08-01T12:21:56.050Z,27.55
2022-08-01T12:22:51.295Z,27.65
2022-08-01T12:23:51.277Z,27.75
2022-08-01T12:24:51.246Z,27.81
2022-08-01T12:25:51.229Z,27.85
2022-08-01T12:26:51.228Z,27.96
2022-08-01T12:27:56.010Z,28.07
2022-08-01T12:28:52.198Z,28.22
2022-08-01T12:29:51.205Z,28.25
2022-08-01T12:30:51.158Z,28.24
2022-08-01T12:31:51.138Z,28.06
2022-08-01T12:32:51.155Z,27.99
2022-08-01T12:33:51.548Z,28.02
2022-08-01T12:34:51.124Z,28.06
2022-08-01T12:35:51.107Z,28.19
2022-08-01T12:36:51.076Z,28.19
2022-08-01T12:37:51.064Z,28.30
2022-08-01T12:38:51.056Z,28.39
2022-08-01T12:39:51.341Z,28.49
2022-08-01T12:40:52.344Z,28.59
2022-08-01T12:41:51.068Z,28.76
2022-08-01T12:42:50.998Z,28.88
2022-08-01T12:43:50.980Z,28.96
2022-08-01T12:44:51.249Z,29.02
2022-08-01T12:45:56.746Z,28.93
2022-08-01T12:46:51.985Z,28.90
2022-08-01T12:47:50.968Z,28.95
2022-08-01T12:48:50.989Z,28.89
2022-08-01T12:49:50.921Z,28.88
2022-08-01T12:50:51.137Z,29.02
2022-08-01T12:51:56.968Z,29.04
2022-08-01T12:52:51.909Z,29.02
2022-08-01T12:53:50.868Z,28.98
2022-08-01T12:54:51.207Z,29.02
2022-08-01T12:55:59.099Z,29.04
2022-08-01T12:56:51.839Z,29.24
2022-08-01T12:57:50.850Z,29.43
2022-08-01T12:58:50.808Z,29.61
2022-08-01T12:59:50.798Z,29.76
2022-08-01T13:00:51.272Z,29.74
2022-08-01T13:01:50.918Z,29.89
2022-08-01T13:02:50.769Z,30.04
2022-08-01T13:03:50.737Z,30.45